Time;durP1;ratioP1;P1;durP2;ratioP2;P2;SDS_P1;SDS_P2;PMS_P1;PMS_P2;Temp;Humidity;BMP_temperature;BMP_pressure;BME280_temperature;BME280_humidity;BME280_pressure;Samples;Min_cycle;Max_cycle;Signal;HPM_P1;HPM_P2
2021/08/24 17:03:20;;;;;;;12.47;8.30;;;;;;;17.68;81.42;99566.70;1796846;79;22556;-69
2021/08/24 17:05:47;;;;;;;12.45;7.28;;;;;;;17.55;80.80;99563.50;1739818;81;21010;-69
2021/08/24 17:08:13;;;;;;;;;;;;;;;17.53;80.23;99563.59;1752114;81;21101;-70
2021/08/24 17:10:40;;;;;;;12.10;7.43;;;;;;;17.47;80.15;99566.23;1735038;80;20419;-70
2021/08/24 17:13:09;;;;;;;10.75;7.05;;;;;;;17.37;80.43;99561.29;1735762;82;21012;-69
2021/08/24 17:15:44;;;;;;;9.25;6.42;;;;;;;17.37;80.59;99561.84;1756443;80;21023;-71
2021/08/24 17:18:11;;;;;;;9.93;7.72;;;;;;;17.39;80.59;99558.23;1735554;81;21364;-72
2021/08/24 17:20:41;;;;;;;12.85;7.80;;;;;;;17.37;80.56;99553.59;1729521;81;21047;-72
2021/08/24 17:23:08;;;;;;;9.15;7.30;;;;;;;17.35;80.57;99552.55;1740093;81;21003;-71
2021/08/24 17:25:44;;;;;;;15.08;8.13;;;;;;;17.37;80.23;99550.28;1733665;81;21086;-69
2021/08/24 17:28:14;;;;;;;13.45;8.03;;;;;;;17.35;79.98;99557.25;1733559;81;21032;-69
2021/08/24 17:30:42;;;;;;;10.28;7.58;;;;;;;17.34;79.94;99548.18;1731785;81;21088;-69
2021/08/24 17:33:09;;;;;;;9.98;6.95;;;;;;;17.33;80.00;99551.23;1737035;81;21040;-69
2021/08/24 17:35:35;;;;;;;10.60;6.65;;;;;;;17.32;80.18;99555.92;1739444;80;21067;-69
2021/08/24 17:38:02;;;;;;;12.37;7.37;;;;;;;17.39;80.08;99543.09;1755942;81;21096;-69
2021/08/24 17:40:29;;;;;;;;;;;;;;;17.43;80.04;99550.14;1736161;81;21543;-67
2021/08/24 17:42:55;;;;;;;9.70;7.12;;;;;;;17.46;79.97;99549.50;1730706;82;20132;-69
2021/08/24 17:45:29;;;;;;;;;;;;;;;17.47;79.83;99557.97;1744278;81;21579;-69
2021/08/24 17:48:08;;;;;;;9.90;6.70;;;;;;;17.46;79.77;99551.69;1744077;81;20465;-69
2021/08/24 17:50:31;;;;;;;8.95;6.87;;;;;;;17.40;79.95;99555.14;1744788;80;21076;-69
2021/08/24 17:52:58;;;;;;;10.32;6.87;;;;;;;17.43;79.79;99544.86;1728815;81;21000;-70
2021/08/24 17:55:27;;;;;;;11.90;7.55;;;;;;;17.46;79.71;99547.56;1726897;81;21776;-69
2021/08/24 17:57:54;;;;;;;10.80;7.00;;;;;;;17.48;79.77;99556.85;1759980;81;21052;-70
2021/08/24 18:00:20;;;;;;;;;;;;;;;17.54;79.71;99554.18;1745566;80;21120;-69
2021/08/24 18:02:47;;;;;;;10.07;6.80;;;;;;;17.57;79.67;99548.88;1730614;83;20132;-70
2021/08/24 18:05:34;;;;;;;9.85;6.58;;;;;;;17.50;79.98;99551.27;1725297;83;21798;-69
2021/08/24 18:08:00;;;;;;;8.58;6.42;;;;;;;17.54;80.03;99553.62;1729764;83;21088;-70
2021/08/24 18:10:28;;;;;;;11.73;7.47;;;;;;;17.61;80.00;99550.41;1725503;83;21538;-70
2021/08/24 18:12:54;;;;;;;11.53;7.22;;;;;;;17.65;80.04;99546.70;1697963;83;21047;-70
2021/08/24 18:15:31;;;;;;;9.18;6.00;;;;;;;17.67;80.18;99543.08;1694967;85;21064;-70
2021/08/24 18:17:58;;;;;;;10.65;6.33;;;;;;;17.70;80.28;99548.50;1699974;84;21505;-69
2021/08/24 18:20:25;;;;;;;10.95;6.67;;;;;;;17.78;80.17;99553.98;1682120;84;21047;-69
2021/08/24 18:22:51;;;;;;;8.40;6.47;;;;;;;17.85;80.04;99538.39;1679411;84;21043;-69
2021/08/24 18:25:21;;;;;;;11.45;7.22;;;;;;;17.89;79.94;99555.29;1676460;84;21082;-69
2021/08/24 18:27:47;;;;;;;9.55;6.10;;;;;;;17.91;80.01;99557.73;1677958;85;21568;-69
2021/08/24 18:30:14;;;;;;;;;;;;;;;17.96;79.88;99558.92;1680777;84;21118;-69
2021/08/24 18:32:40;;;;;;;10.03;6.70;;;;;;;18.01;79.58;99569.80;1687729;84;20174;-69
2021/08/24 18:35:07;;;;;;;8.68;6.70;;;;;;;17.98;79.65;99577.33;1706384;83;21577;-69
2021/08/24 18:37:34;;;;;;;9.83;6.83;;;;;;;17.97;79.79;99583.97;1680580;84;21559;-69
2021/08/24 18:40:01;;;;;;;8.63;6.25;;;;;;;17.98;80.01;99582.02;1699076;83;21098;-70
2021/08/24 18:42:28;;;;;;;9.88;6.80;;;;;;;18.00;80.07;99579.18;1677673;84;21505;-69
2021/08/24 18:44:55;;;;;;;8.68;6.58;;;;;;;18.07;80.14;99585.58;1674630;84;21152;-69
2021/08/24 18:47:21;;;;;;;11.30;7.15;;;;;;;18.06;80.27;99582.60;1689293;84;21081;-69
2021/08/24 18:49:47;;;;;;;;;;;;;;;18.10;80.23;99585.77;1696539;83;21054;-68
2021/08/24 18:52:14;;;;;;;9.20;6.20;;;;;;;18.15;80.03;99581.45;1690556;84;20111;-69
2021/08/24 18:54:40;;;;;;;;;;;;;;;18.14;79.95;99589.47;1677711;85;21060;-70
2021/08/24 18:57:07;;;;;;;9.73;6.03;;;;;;;18.11;79.87;99609.96;1666365;86;20119;-69
2021/08/24 18:59:33;;;;;;;9.43;6.72;;;;;;;18.12;79.89;99617.92;1681326;84;21110;-70
2021/08/24 19:01:59;;;;;;;;;;;;;;;18.13;79.84;99633.88;1679540;85;21110;-70
2021/08/24 19:04:25;;;;;;;10.58;7.37;;;;;;;18.10;80.00;99625.71;1676177;84;20426;-70
2021/08/24 19:06:52;;;;;;;;;;;;;;;17.98;80.19;99599.92;1679002;85;21070;-69
2021/08/24 19:09:18;;;;;;;9.80;7.40;;;;;;;17.96;80.38;99605.75;1682362;85;20131;-70
2021/08/24 19:11:45;;;;;;;10.45;7.95;;;;;;;17.90;80.57;99599.60;1686293;84;21050;-69
2021/08/24 19:14:27;;;;;;;10.55;7.85;;;;;;;17.96;80.58;99593.95;1667065;84;21105;-69
2021/08/24 19:16:55;;;;;;;11.83;7.20;;;;;;;17.97;80.63;99594.98;1678602;84;21567;-69
2021/08/24 19:19:23;;;;;;;12.63;8.45;;;;;;;17.88;80.86;99580.41;1673117;84;21073;-69
2021/08/24 19:21:50;;;;;;;11.15;7.67;;;;;;;17.86;80.87;99588.98;1679268;84;21015;-69
2021/08/24 19:24:16;;;;;;;13.30;8.20;;;;;;;17.86;80.93;99597.25;1675128;84;21062;-70
2021/08/24 19:26:45;;;;;;;12.45;7.78;;;;;;;17.86;80.90;99606.88;1676231;85;21077;-70
2021/08/24 19:29:11;;;;;;;10.63;7.50;;;;;;;17.92;80.88;99603.98;1676439;85;21046;-70
2021/08/24 19:31:37;;;;;;;13.93;7.75;;;;;;;17.96;80.89;99604.37;1675195;85;21001;-70
2021/08/24 19:34:04;;;;;;;;;;;;;;;18.00;80.85;99605.91;1681624;85;21098;-70
2021/08/24 19:36:30;;;;;;;11.93;7.78;;;;;;;18.08;80.57;99600.41;1676635;85;20438;-70
2021/08/24 19:38:56;;;;;;;11.83;7.20;;;;;;;18.09;80.32;99599.28;1676305;85;21082;-70
2021/08/24 19:41:23;;;;;;;;;;;;;;;18.08;80.06;99601.79;1678169;85;21529;-70
2021/08/24 19:43:49;;;;;;;12.50;8.23;;;;;;;18.06;80.15;99599.94;1674952;84;20121;-70
2021/08/24 19:46:16;;;;;;;11.55;7.65;;;;;;;18.02;80.46;99601.72;1674956;86;21023;-71
2021/08/24 19:48:42;;;;;;;;;;;;;;;18.07;80.44;99593.27;1677580;84;21082;-70
2021/08/24 19:51:10;;;;;;;9.70;7.70;;;;;;;18.16;80.15;99588.59;1677408;85;20177;-70
2021/08/24 19:53:37;;;;;;;10.80;7.37;;;;;;;18.16;79.93;99592.72;1683395;84;21038;-71
2021/08/24 19:56:05;;;;;;;11.45;7.50;;;;;;;18.14;79.94;99590.84;1678347;84;21535;-70
2021/08/24 19:58:34;;;;;;;9.10;6.58;;;;;;;18.13;79.86;99587.86;1684569;83;21095;-70
2021/08/24 20:01:01;;;;;;;11.83;7.75;;;;;;;18.18;79.60;99585.49;1680530;83;20994;-70
2021/08/24 20:03:36;;;;;;;11.15;7.22;;;;;;;18.18;79.42;99581.36;1650178;86;21043;-70
2021/08/24 20:06:02;;;;;;;14.43;8.38;;;;;;;18.15;79.38;99578.70;1672873;85;21015;-69
2021/08/24 20:08:28;;;;;;;11.22;6.97;;;;;;;18.10;79.45;99577.50;1691156;83;21110;-70
2021/08/24 20:10:58;;;;;;;14.23;7.85;;;;;;;18.09;79.30;99575.88;1708063;83;21080;-70
2021/08/24 20:13:26;;;;;;;14.93;8.35;;;;;;;18.06;79.21;99578.47;1701285;83;21562;-70
2021/08/24 20:15:55;;;;;;;13.58;7.78;;;;;;;17.98;79.17;99571.83;1757503;81;21019;-70
2021/08/24 20:18:22;;;;;;;14.30;7.95;;;;;;;17.90;79.41;99567.12;1736001;80;21878;-70
2021/08/24 20:20:48;;;;;;;14.23;7.60;;;;;;;17.94;79.44;99568.09;1750438;81;21010;-70
2021/08/24 20:23:23;;;;;;;15.15;8.55;;;;;;;17.95;79.37;99562.84;1726184;82;21515;-70
2021/08/24 20:25:50;;;;;;;13.43;8.55;;;;;;;17.95;79.37;99566.16;1728847;81;21474;-71
2021/08/24 20:28:17;;;;;;;10.93;7.42;;;;;;;17.89;79.45;99559.98;1743093;81;20993;-71
2021/08/24 20:30:45;;;;;;;10.40;7.65;;;;;;;17.88;79.41;99559.77;1709489;83;20987;-71
2021/08/24 20:33:13;;;;;;;10.13;7.50;;;;;;;17.90;79.41;99557.48;1720330;83;20991;-71
2021/08/24 20:35:39;;;;;;;12.82;7.85;;;;;;;17.94;79.34;99554.89;1707303;83;21059;-68
2021/08/24 20:38:06;;;;;;;9.43;7.47;;;;;;;17.87;79.43;99554.81;1743219;81;21806;-68
2021/08/24 20:40:41;;;;;;;12.75;7.92;;;;;;;17.86;79.58;99560.63;1734765;81;21066;-67
2021/08/24 20:43:07;;;;;;;13.13;7.78;;;;;;;17.87;79.49;99551.25;1720668;81;21115;-70
2021/08/24 20:45:34;;;;;;;13.65;8.05;;;;;;;17.88;79.40;99552.31;1725686;82;21056;-71
2021/08/24 20:48:00;;;;;;;;;;;;;;;17.87;79.43;99550.69;1736733;81;20986;-70
2021/08/24 20:50:26;;;;;;;12.60;7.67;;;;;;;17.81;79.57;99548.42;1735755;81;20107;-71
2021/08/24 20:52:52;;;;;;;;;;;;;;;17.68;79.98;99543.30;1732762;81;21536;-71
2021/08/24 20:55:19;;;;;;;11.97;7.92;;;;;;;17.69;80.01;99543.55;1743194;81;20166;-71
2021/08/24 20:57:45;;;;;;;13.00;8.18;;;;;;;17.65;80.20;99541.77;1744070;81;21536;-71
2021/08/24 21:00:12;;;;;;;;;;;;;;;17.63;80.28;99542.09;1732335;81;21072;-71
2021/08/24 21:02:39;;;;;;;11.55;8.18;;;;;;;17.60;80.45;99537.25;1757545;81;20110;-70
2021/08/24 21:05:06;;;;;;;11.55;7.15;;;;;;;17.49;80.80;99535.91;1760755;80;21576;-71
2021/08/24 21:07:32;;;;;;;10.53;7.28;;;;;;;17.54;80.80;99539.86;1747163;81;21012;-71
2021/08/24 21:09:59;;;;;;;;;;;;;;;17.62;80.66;99542.41;1735242;81;21121;-71
2021/08/24 21:12:27;;;;;;;9.58;7.55;;;;;;;17.63;80.56;99535.22;1734729;81;20568;-71
2021/08/24 21:14:53;;;;;;;;;;;;;;;17.54;80.84;99529.41;1734971;81;21049;-71
2021/08/24 21:17:19;;;;;;;11.73;8.45;;;;;;;17.51;81.03;99535.56;1726138;81;20483;-71
2021/08/24 21:19:45;;;;;;;;;;;;;;;17.47;81.26;99531.27;1727550;81;21063;-71
2021/08/24 21:22:12;;;;;;;12.93;7.95;;;;;;;17.56;81.04;99536.27;1716712;81;20167;-68
2021/08/24 21:24:38;;;;;;;12.73;8.25;;;;;;;17.55;80.97;99528.28;1719204;80;21080;-69
2021/08/24 21:27:04;;;;;;;14.87;8.55;;;;;;;17.52;81.04;99532.50;1732836;81;20977;-70
2021/08/24 21:29:31;;;;;;;;;;;;;;;17.48;81.24;99529.33;1706857;83;21093;-69
2021/08/24 21:31:57;;;;;;;12.88;7.30;;;;;;;17.50;81.24;99529.25;1730795;83;20182;-69
2021/08/24 21:34:23;;;;;;;;;;;;;;;17.54;81.13;99532.16;1741287;81;21496;-69
2021/08/24 21:36:49;;;;;;;10.98;7.95;;;;;;;17.60;80.91;99536.43;1749351;81;20139;-69
2021/08/24 21:39:16;;;;;;;14.90;8.13;;;;;;;17.51;80.97;99526.75;1730324;81;21585;-69
2021/08/24 21:41:43;;;;;;;12.07;7.85;;;;;;;17.47;81.10;99524.39;1736577;81;21041;-69
2021/08/24 21:44:10;;;;;;;11.50;7.78;;;;;;;17.45;81.06;99533.55;1731654;81;21067;-70
2021/08/24 21:46:39;;;;;;;11.35;8.03;;;;;;;17.48;81.00;99531.52;1737280;81;21039;-69
2021/08/24 21:49:05;;;;;;;14.55;8.15;;;;;;;17.55;80.91;99527.73;1714172;81;21524;-70
2021/08/24 21:51:45;;;;;;;12.98;8.60;;;;;;;17.58;80.84;99528.48;1750683;81;21473;-69
2021/08/24 21:54:12;;;;;;;12.00;7.87;;;;;;;17.53;80.96;99520.94;1730882;83;21070;-70
2021/08/24 21:56:42;;;;;;;9.85;6.97;;;;;;;17.53;80.99;99514.05;1747718;81;20971;-69
2021/08/24 21:59:08;;;;;;;14.03;8.05;;;;;;;17.57;80.79;99517.22;1736834;81;21087;-69
2021/08/24 22:01:35;;;;;;;11.93;7.42;;;;;;;17.56;80.65;99505.99;1733224;81;21358;-70
2021/08/24 22:04:02;;;;;;;11.70;8.20;;;;;;;17.58;80.71;99519.41;1755279;80;21093;-69
2021/08/24 22:06:30;;;;;;;16.00;8.38;;;;;;;17.60;80.79;99508.91;1732210;82;21068;-69
2021/08/24 22:08:57;;;;;;;12.13;8.40;;;;;;;17.59;80.87;99503.97;1724906;81;21056;-70
2021/08/24 22:11:24;;;;;;;12.55;7.70;;;;;;;17.62;80.70;99507.44;1732480;82;21059;-70
2021/08/24 22:13:58;;;;;;;11.65;7.67;;;;;;;17.67;80.39;99500.97;1728249;80;21073;-70
2021/08/24 22:16:27;;;;;;;13.68;8.40;;;;;;;17.71;80.26;99497.23;1715642;82;21511;-70
2021/08/24 22:18:53;;;;;;;10.63;7.60;;;;;;;17.71;80.24;99497.23;1722902;83;21647;-71
2021/08/24 22:21:37;;;;;;;;;;;;;;;17.69;80.45;99493.19;1712385;82;21055;-70
2021/08/24 22:24:08;;;;;;;11.00;7.62;;;;;;;17.67;80.36;99488.59;1720409;82;20140;-70
2021/08/24 22:26:35;;;;;;;13.15;7.67;;;;;;;17.61;80.46;99487.11;1722873;83;21003;-71
2021/08/24 22:29:01;;;;;;;;;;;;;;;17.63;80.56;99479.36;1725255;83;21091;-70
2021/08/24 22:31:27;;;;;;;11.25;7.55;;;;;;;17.66;80.61;99482.27;1721481;82;20184;-70
2021/08/24 22:33:53;;;;;;;14.05;8.63;;;;;;;17.57;80.91;99477.91;1691112;83;21056;-70
2021/08/24 22:36:32;;;;;;;10.25;7.47;;;;;;;17.61;80.91;99479.66;1724332;82;21034;-71
2021/08/24 22:39:01;;;;;;;12.23;7.65;;;;;;;17.71;80.69;99478.55;1747302;80;21153;-70
2021/08/24 22:41:33;;;;;;;13.20;8.03;;;;;;;17.75;80.53;99476.73;1719689;82;20975;-71
2021/08/24 22:43:59;;;;;;;14.45;8.80;;;;;;;17.75;80.50;99483.06;1719835;82;21394;-71
2021/08/24 22:46:25;;;;;;;13.08;8.75;;;;;;;17.71;80.59;99477.17;1721721;83;20973;-70
2021/08/24 22:48:52;;;;;;;11.43;8.38;;;;;;;17.69;80.65;99477.48;1725641;82;21080;-70
2021/08/24 22:51:18;;;;;;;;;;;;;;;17.71;80.52;99471.67;1732356;82;21005;-70
2021/08/24 22:53:45;;;;;;;13.15;8.38;;;;;;;17.70;80.50;99462.59;1720693;82;20137;-69
2021/08/24 22:56:13;;;;;;;14.47;8.23;;;;;;;17.67;80.69;99456.93;1723441;82;20978;-70
2021/08/24 22:58:39;;;;;;;12.90;8.33;;;;;;;17.67;80.79;99455.55;1715357;83;21117;-70
2021/08/24 23:01:06;;;;;;;12.18;8.63;;;;;;;17.64;80.90;99449.33;1710519;82;21499;-70
2021/08/24 23:03:33;;;;;;;12.23;8.98;;;;;;;17.67;80.90;99446.73;1726861;81;21045;-69
2021/08/24 23:05:59;;;;;;;12.88;8.75;;;;;;;17.68;80.79;99443.39;1736932;82;21529;-71
2021/08/24 23:08:25;;;;;;;;;;;;;;;17.66;80.77;99442.35;1731335;82;21083;-70
2021/08/24 23:10:52;;;;;;;13.67;8.77;;;;;;;17.65;80.77;99447.61;1681252;83;20203;-70
2021/08/24 23:13:20;;;;;;;14.03;8.68;;;;;;;17.58;80.97;99440.97;1657969;85;21123;-70
2021/08/24 23:15:48;;;;;;;12.98;8.93;;;;;;;17.55;81.11;99441.03;1669756;84;21557;-69
2021/08/24 23:18:15;;;;;;;13.60;9.00;;;;;;;17.50;81.31;99444.53;1646525;86;21056;-70
2021/08/24 23:20:42;;;;;;;13.53;8.80;;;;;;;17.51;81.39;99445.56;1658859;85;21072;-71
2021/08/24 23:23:08;;;;;;;12.20;9.15;;;;;;;17.56;81.24;99448.73;1722646;82;21640;-70
2021/08/24 23:25:35;;;;;;;12.33;8.25;;;;;;;17.62;81.12;99446.08;1745907;81;21097;-71
2021/08/24 23:28:01;;;;;;;;;;;;;;;17.66;81.03;99428.59;1720676;83;21012;-70
2021/08/24 23:30:28;;;;;;;11.85;8.23;;;;;;;17.70;80.97;99419.12;1732045;82;20091;-69
2021/08/24 23:33:15;;;;;;;14.20;9.23;;;;;;;17.62;81.15;99402.03;1727596;79;21102;31
2021/08/24 23:35:42;;;;;;;11.35;8.65;;;;;;;17.57;81.28;99404.38;1726262;81;21026;-81
2021/08/24 23:38:09;;;;;;;12.50;9.08;;;;;;;17.56;81.49;99400.56;1715293;82;21034;-80
2021/08/24 23:40:35;;;;;;;14.95;8.33;;;;;;;17.55;81.57;99394.25;1699992;83;21041;-80
2021/08/24 23:43:02;;;;;;;14.70;9.30;;;;;;;17.55;81.60;99389.30;1691828;84;21030;-82
2021/08/24 23:45:28;;;;;;;15.50;9.18;;;;;;;17.56;81.67;99390.40;1690355;84;21046;-81
2021/08/24 23:47:55;;;;;;;12.28;9.18;;;;;;;17.55;81.77;99390.68;1663123;86;21518;-82
2021/08/24 23:50:22;;;;;;;14.38;9.00;;;;;;;17.55;81.88;99392.05;1681872;85;21058;-81
2021/08/24 23:52:49;;;;;;;14.40;9.25;;;;;;;17.54;82.02;99413.27;1692646;83;21214;-81
2021/08/24 23:55:20;;;;;;;16.25;9.38;;;;;;;17.54;82.08;99420.70;1686922;83;21644;-81
2021/08/24 23:57:44;;;;;;;14.98;9.40;;;;;;;17.56;82.14;99425.33;1693753;84;21046;-83
